createdAt,value
2023-04-29T00:02:01.524Z,1.43
2023-04-29T00:06:54.381Z,1.13
2023-04-29T00:11:48.320Z,1.42
2023-04-29T00:16:40.302Z,1.02
2023-04-29T00:21:33.464Z,1.58
2023-04-29T00:26:25.424Z,1.05
2023-04-29T00:31:17.834Z,1.48
2023-04-29T00:36:09.918Z,1.48
2023-04-29T00:41:04.023Z,1.27
2023-04-29T00:46:00.267Z,1.35
2023-04-29T00:50:53.359Z,1.02
2023-04-29T00:55:47.667Z,1.15
2023-04-29T01:00:41.849Z,1.20
2023-04-29T01:10:26.926Z,1.13
2023-04-29T01:20:26.431Z,1.27
2023-04-29T01:25:19.739Z,1.40
2023-04-29T01:30:50.908Z,1.10
2023-04-29T01:36:02.044Z,1.00
2023-04-29T01:41:15.399Z,0.95
2023-04-29T01:46:15.486Z,1.33
2023-04-29T01:51:07.848Z,1.50
2023-04-29T01:56:00.234Z,1.17
2023-04-29T02:00:55.909Z,1.55
2023-04-29T02:05:50.645Z,1.83
2023-04-29T02:10:42.871Z,1.10
2023-04-29T02:15:51.070Z,1.52
2023-04-29T02:20:43.562Z,1.40
2023-04-29T02:25:35.692Z,1.10
2023-04-29T02:30:27.775Z,2.73
2023-04-29T02:35:19.759Z,1.13
2023-04-29T02:45:07.248Z,1.60
2023-04-29T02:49:59.071Z,1.23
2023-04-29T02:54:51.135Z,1.30
2023-04-29T02:59:43.090Z,1.37
2023-04-29T03:04:36.446Z,1.57
2023-04-29T03:09:28.711Z,1.40
2023-04-29T03:14:22.146Z,1.42
2023-04-29T03:19:16.927Z,1.30
2023-04-29T03:24:08.805Z,1.45
2023-04-29T03:29:03.218Z,1.38
2023-04-29T03:33:55.317Z,1.33
2023-04-29T03:43:41.267Z,1.27
2023-04-29T03:48:33.404Z,1.48
2023-04-29T03:53:26.441Z,1.30
2023-04-29T03:58:19.712Z,1.13
2023-04-29T04:03:11.715Z,1.40
2023-04-29T04:08:04.206Z,1.33
2023-04-29T04:12:59.087Z,1.27
2023-04-29T04:17:51.761Z,1.30
2023-04-29T04:22:44.434Z,1.33
2023-04-29T04:32:49.809Z,1.30
2023-04-29T04:37:42.022Z,1.35
2023-04-29T04:42:34.237Z,1.20
2023-04-29T04:47:29.684Z,1.73
2023-04-29T04:52:38.512Z,1.50
2023-04-29T04:57:52.932Z,1.33
2023-04-29T05:02:45.159Z,1.57
2023-04-29T05:07:37.056Z,1.83
2023-04-29T05:17:26.459Z,1.38
2023-04-29T05:22:18.420Z,0.90
2023-04-29T05:27:12.656Z,1.38
2023-04-29T05:32:06.070Z,1.20
2023-04-29T05:36:58.179Z,1.20
2023-04-29T05:41:52.909Z,1.30
2023-04-29T05:46:53.646Z,1.13
2023-04-29T05:51:45.552Z,1.27
2023-04-29T05:56:37.828Z,1.60
2023-04-29T06:01:34.874Z,1.73
2023-04-29T06:06:27.213Z,1.02
2023-04-29T06:11:28.249Z,1.48
2023-04-29T06:16:21.569Z,1.20
2023-04-29T06:21:13.800Z,1.17
2023-04-29T06:26:08.711Z,1.50
2023-04-29T06:31:02.901Z,1.15
2023-04-29T06:35:55.129Z,1.75
2023-04-29T06:40:47.058Z,1.60
2023-04-29T06:45:46.964Z,1.55
2023-04-29T06:50:57.231Z,1.30
2023-04-29T06:55:49.180Z,1.20
2023-04-29T07:00:41.195Z,1.30
2023-04-29T07:05:33.072Z,1.80
2023-04-29T07:10:33.258Z,1.08
2023-04-29T07:15:30.527Z,1.42
2023-04-29T07:20:32.402Z,1.08
2023-04-29T07:25:27.896Z,1.27
2023-04-29T07:30:20.424Z,1.42
2023-04-29T07:35:12.258Z,1.45
2023-04-29T07:40:04.716Z,1.58
2023-04-29T07:44:58.761Z,1.20
2023-04-29T07:49:50.681Z,1.27
2023-04-29T07:54:43.559Z,2.13
2023-04-29T08:04:28.073Z,1.63
2023-04-29T08:09:31.222Z,1.20
2023-04-29T08:14:23.316Z,1.08
2023-04-29T08:19:15.351Z,1.43
2023-04-29T08:24:07.218Z,1.10
2023-04-29T08:29:04.104Z,1.27
2023-04-29T08:33:56.256Z,1.73
2023-04-29T08:38:49.076Z,1.33
2023-04-29T08:43:41.072Z,1.48
2023-04-29T08:48:44.984Z,1.40
2023-04-29T08:53:37.232Z,0.95
2023-04-29T08:58:31.415Z,1.30
2023-04-29T09:03:50.429Z,1.20
2023-04-29T09:08:42.708Z,1.55
2023-04-29T09:13:34.528Z,1.63
2023-04-29T09:18:42.685Z,1.20
2023-04-29T09:23:39.802Z,1.25
2023-04-29T09:28:32.807Z,2.00
2023-04-29T09:38:22.171Z,1.27
2023-04-29T09:43:18.526Z,1.50
2023-04-29T09:48:11.793Z,2.25
2023-04-29T09:53:04.700Z,1.13
2023-04-29T09:57:56.779Z,1.42
2023-04-29T10:02:51.891Z,1.47
2023-04-29T10:07:44.090Z,1.10
2023-04-29T10:12:38.893Z,1.30
2023-04-29T10:17:44.489Z,1.05
2023-04-29T10:22:39.145Z,1.20
2023-04-29T10:27:31.736Z,1.17
2023-04-29T10:32:25.604Z,1.38
2023-04-29T10:37:17.828Z,1.65
2023-04-29T10:42:26.138Z,1.47
2023-04-29T10:47:22.225Z,1.30
2023-04-29T10:52:17.176Z,1.27
2023-04-29T10:57:21.410Z,1.58
2023-04-29T11:02:15.078Z,1.73
2023-04-29T11:07:07.078Z,1.55
2023-04-29T11:12:09.586Z,1.33
2023-04-29T11:17:03.976Z,1.47
2023-04-29T11:22:32.278Z,1.15
2023-04-29T11:27:26.130Z,1.67
2023-04-29T11:32:22.190Z,1.35
2023-04-29T11:37:20.484Z,1.55
2023-04-29T11:42:12.406Z,1.35
2023-04-29T11:47:09.512Z,1.25
2023-04-29T11:52:01.694Z,1.48
2023-04-29T11:56:55.622Z,1.40
2023-04-29T12:01:48.104Z,1.30
2023-04-29T12:06:40.852Z,2.78
2023-04-29T12:11:32.921Z,1.80
2023-04-29T12:16:25.887Z,1.87
2023-04-29T12:26:10.012Z,1.30
2023-04-29T12:31:02.178Z,1.30
2023-04-29T12:35:58.764Z,1.10
2023-04-29T12:40:51.252Z,1.20
2023-04-29T12:45:43.319Z,2.05
2023-04-29T12:50:37.859Z,1.23
2023-04-29T12:55:29.784Z,1.20
2023-04-29T13:00:22.234Z,2.20
2023-04-29T13:05:14.324Z,1.60
2023-04-29T13:10:07.364Z,1.27
2023-04-29T13:14:59.669Z,1.48
2023-04-29T13:19:52.377Z,1.55
2023-04-29T13:24:46.000Z,1.50
2023-04-29T13:29:37.870Z,1.70
2023-04-29T13:34:29.876Z,1.88
2023-04-29T13:39:23.368Z,2.05
2023-04-29T13:44:27.151Z,1.40
2023-04-29T13:50:02.139Z,2.13
2023-04-29T13:59:44.836Z,1.92
2023-04-29T14:04:42.542Z,1.83
2023-04-29T14:09:35.840Z,2.97
2023-04-29T14:14:27.911Z,1.63
2023-04-29T14:19:20.945Z,1.88
2023-04-29T14:24:12.885Z,1.30
2023-04-29T14:29:04.741Z,1.60
2023-04-29T14:33:57.372Z,1.30
2023-04-29T14:38:49.382Z,1.52
2023-04-29T14:43:42.719Z,1.47
2023-04-29T14:48:35.401Z,2.03
2023-04-29T14:53:28.418Z,1.50
2023-04-29T15:03:20.204Z,1.83
2023-04-29T15:08:14.205Z,2.63
2023-04-29T15:13:07.013Z,1.70
2023-04-29T15:17:59.212Z,1.70
2023-04-29T15:22:51.327Z,1.53
2023-04-29T15:27:43.346Z,2.50
2023-04-29T15:32:35.326Z,1.63
2023-04-29T15:37:29.356Z,1.83
2023-04-29T15:42:22.239Z,1.40
2023-04-29T15:47:14.043Z,1.83
2023-04-29T15:52:05.966Z,1.40
2023-04-29T15:56:57.920Z,1.60
2023-04-29T16:01:49.852Z,3.17
2023-04-29T16:06:42.623Z,1.63
2023-04-29T16:11:36.026Z,2.67
2023-04-29T16:16:28.128Z,1.70
2023-04-29T16:21:20.366Z,2.23
2023-04-29T16:26:13.823Z,1.57
2023-04-29T16:31:05.986Z,2.35
2023-04-29T16:36:00.904Z,2.77
2023-04-29T16:40:53.963Z,1.60
2023-04-29T16:50:38.480Z,1.77
2023-04-29T16:55:31.494Z,1.50
2023-04-29T17:00:24.631Z,1.70
2023-04-29T17:05:16.942Z,1.38
2023-04-29T17:10:09.888Z,1.70
2023-04-29T17:19:53.703Z,1.65
2023-04-29T17:24:46.534Z,1.70
2023-04-29T17:29:39.780Z,1.65
2023-04-29T17:34:34.178Z,2.55
2023-04-29T17:39:26.141Z,1.58
2023-04-29T17:44:18.095Z,1.48
2023-04-29T17:49:11.612Z,1.40
2023-04-29T17:54:05.685Z,1.75
2023-04-29T17:58:57.591Z,1.40
2023-04-29T18:03:51.359Z,1.95
2023-04-29T18:08:43.201Z,1.63
2023-04-29T18:13:35.896Z,1.60
2023-04-29T18:18:27.898Z,1.98
2023-04-29T18:23:19.749Z,1.50
2023-04-29T18:28:24.186Z,2.17
2023-04-29T18:33:17.396Z,1.52
2023-04-29T18:38:14.328Z,1.77
2023-04-29T18:43:06.581Z,1.55
2023-04-29T18:48:05.659Z,1.47
2023-04-29T18:53:03.713Z,2.00
2023-04-29T18:57:55.664Z,1.50
2023-04-29T19:02:47.820Z,2.28
2023-04-29T19:07:39.936Z,1.60
2023-04-29T19:12:32.108Z,1.87
2023-04-29T19:17:24.113Z,1.77
2023-04-29T19:22:16.149Z,1.80
2023-04-29T19:27:08.485Z,1.40
2023-04-29T19:32:00.342Z,1.58
2023-04-29T19:36:52.404Z,2.00
2023-04-29T19:41:44.861Z,1.97
2023-04-29T19:46:37.017Z,1.90
2023-04-29T19:51:29.050Z,2.10
2023-04-29T19:56:21.133Z,2.30
2023-04-29T20:01:13.202Z,2.03
2023-04-29T20:06:05.876Z,1.40
2023-04-29T20:11:00.837Z,2.22
2023-04-29T20:15:54.289Z,1.70
2023-04-29T20:28:48.200Z,4.90
2023-04-29T20:33:40.111Z,3.40
2023-04-29T20:38:35.306Z,3.05
2023-04-29T20:43:27.226Z,4.78
2023-04-29T20:48:19.201Z,3.80
2023-04-29T20:53:11.164Z,6.10
2023-04-29T20:58:04.130Z,3.75
2023-04-29T21:07:50.806Z,3.38
2023-04-29T21:12:42.632Z,3.38
2023-04-29T21:17:34.639Z,3.55
2023-04-29T21:22:26.589Z,4.53
2023-04-29T21:27:18.365Z,3.33
2023-04-29T21:32:11.319Z,3.33
2023-04-29T21:41:59.374Z,3.45
2023-04-29T21:46:52.887Z,2.92
2023-04-29T21:51:44.852Z,3.45
2023-04-29T21:56:36.932Z,2.63
2023-04-29T22:01:47.355Z,2.73
2023-04-29T22:06:39.462Z,2.70
2023-04-29T22:11:31.489Z,2.43
2023-04-29T22:16:30.832Z,4.30
2023-04-29T22:21:22.983Z,2.92
2023-04-29T22:26:14.924Z,2.58
2023-04-29T22:31:06.878Z,2.75
2023-04-29T22:35:59.151Z,3.33
2023-04-29T22:40:51.799Z,3.17
2023-04-29T22:45:50.264Z,2.55
2023-04-29T22:51:01.584Z,2.75
2023-04-29T22:55:55.464Z,2.58
2023-04-29T23:00:53.481Z,3.15
2023-04-29T23:05:46.977Z,3.08
2023-04-29T23:10:38.959Z,2.70
2023-04-29T23:15:30.888Z,3.03
2023-04-29T23:20:23.341Z,4.07
2023-04-29T23:25:17.464Z,3.75
2023-04-29T23:30:09.727Z,2.53
2023-04-29T23:35:01.644Z,3.37
2023-04-29T23:39:54.013Z,2.65
2023-04-29T23:44:46.673Z,2.72
2023-04-29T23:49:38.759Z,2.58
2023-04-29T23:54:30.603Z,3.03
2023-04-29T23:59:23.504Z,2.88
